sensor_id;sensor_type;location;lat;lon;timestamp;P1;durP1;ratioP1;P2;durP2;ratioP2
75774;SDS011;64505;51.458;7.556;2023-03-24T00:01:03;4.78;;;1.38;;
75774;SDS011;64505;51.458;7.556;2023-03-24T00:03:05;4.70;;;1.85;;
75774;SDS011;64505;51.458;7.556;2023-03-24T00:05:08;5.47;;;1.35;;
75774;SDS011;64505;51.458;7.556;2023-03-24T00:07:15;3.38;;;1.45;;
75774;SDS011;64505;51.458;7.556;2023-03-24T00:09:17;4.22;;;1.70;;
75774;SDS011;64505;51.458;7.556;2023-03-24T00:11:18;5.32;;;1.48;;
75774;SDS011;64505;51.458;7.556;2023-03-24T00:13:21;4.03;;;1.42;;
75774;SDS011;64505;51.458;7.556;2023-03-24T00:15:23;3.45;;;1.30;;
75774;SDS011;64505;51.458;7.556;2023-03-24T00:17:25;3.35;;;1.25;;
75774;SDS011;64505;51.458;7.556;2023-03-24T00:19:29;5.05;;;1.27;;
75774;SDS011;64505;51.458;7.556;2023-03-24T00:21:30;4.13;;;1.42;;
75774;SDS011;64505;51.458;7.556;2023-03-24T00:23:32;3.90;;;1.50;;
75774;SDS011;64505;51.458;7.556;2023-03-24T00:25:34;2.83;;;1.13;;
75774;SDS011;64505;51.458;7.556;2023-03-24T00:27:40;3.88;;;1.40;;
75774;SDS011;64505;51.458;7.556;2023-03-24T00:29:42;5.53;;;1.50;;
75774;SDS011;64505;51.458;7.556;2023-03-24T00:31:43;3.42;;;1.52;;
75774;SDS011;64505;51.458;7.556;2023-03-24T00:33:46;4.10;;;1.42;;
75774;SDS011;64505;51.458;7.556;2023-03-24T00:35:51;5.10;;;1.63;;
75774;SDS011;64505;51.458;7.556;2023-03-24T00:37:52;3.08;;;1.50;;
75774;SDS011;64505;51.458;7.556;2023-03-24T00:39:54;4.80;;;1.45;;
75774;SDS011;64505;51.458;7.556;2023-03-24T00:41:56;4.40;;;1.20;;
75774;SDS011;64505;51.458;7.556;2023-03-24T00:43:59;4.72;;;1.48;;
75774;SDS011;64505;51.458;7.556;2023-03-24T00:46:05;3.10;;;1.40;;
75774;SDS011;64505;51.458;7.556;2023-03-24T00:48:14;3.50;;;1.48;;
75774;SDS011;64505;51.458;7.556;2023-03-24T00:50:20;4.25;;;1.48;;
75774;SDS011;64505;51.458;7.556;2023-03-24T00:52:26;4.45;;;1.27;;
75774;SDS011;64505;51.458;7.556;2023-03-24T00:54:34;2.75;;;1.30;;
75774;SDS011;64505;51.458;7.556;2023-03-24T00:56:37;4.80;;;1.45;;
75774;SDS011;64505;51.458;7.556;2023-03-24T00:58:41;3.75;;;1.48;;
75774;SDS011;64505;51.458;7.556;2023-03-24T01:00:43;4.53;;;1.02;;
75774;SDS011;64505;51.458;7.556;2023-03-24T01:02:47;4.53;;;1.40;;
75774;SDS011;64505;51.458;7.556;2023-03-24T01:04:54;4.10;;;1.48;;
75774;SDS011;64505;51.458;7.556;2023-03-24T01:06:57;3.65;;;1.30;;
75774;SDS011;64505;51.458;7.556;2023-03-24T01:08:59;4.15;;;1.40;;
75774;SDS011;64505;51.458;7.556;2023-03-24T01:11:02;3.58;;;1.40;;
75774;SDS011;64505;51.458;7.556;2023-03-24T01:13:05;4.00;;;1.40;;
75774;SDS011;64505;51.458;7.556;2023-03-24T01:15:10;4.03;;;1.40;;
75774;SDS011;64505;51.458;7.556;2023-03-24T01:17:14;2.85;;;1.35;;
75774;SDS011;64505;51.458;7.556;2023-03-24T01:19:16;6.60;;;1.95;;
75774;SDS011;64505;51.458;7.556;2023-03-24T01:21:19;2.58;;;1.25;;
75774;SDS011;64505;51.458;7.556;2023-03-24T01:23:21;3.92;;;1.63;;
75774;SDS011;64505;51.458;7.556;2023-03-24T01:25:25;3.17;;;1.58;;
75774;SDS011;64505;51.458;7.556;2023-03-24T01:27:28;4.03;;;1.60;;
75774;SDS011;64505;51.458;7.556;2023-03-24T01:29:29;3.13;;;1.40;;
75774;SDS011;64505;51.458;7.556;2023-03-24T01:31:31;4.30;;;1.70;;
75774;SDS011;64505;51.458;7.556;2023-03-24T01:33:32;3.90;;;1.67;;
75774;SDS011;64505;51.458;7.556;2023-03-24T01:35:34;3.42;;;1.63;;
75774;SDS011;64505;51.458;7.556;2023-03-24T01:37:36;3.67;;;1.77;;
75774;SDS011;64505;51.458;7.556;2023-03-24T01:39:38;3.10;;;1.50;;
75774;SDS011;64505;51.458;7.556;2023-03-24T01:41:40;2.95;;;1.60;;
75774;SDS011;64505;51.458;7.556;2023-03-24T01:43:42;4.97;;;1.40;;
75774;SDS011;64505;51.458;7.556;2023-03-24T01:47:58;6.00;;;1.80;;
75774;SDS011;64505;51.458;7.556;2023-03-24T01:50:00;4.43;;;1.77;;
75774;SDS011;64505;51.458;7.556;2023-03-24T01:52:04;4.28;;;1.55;;
75774;SDS011;64505;51.458;7.556;2023-03-24T01:54:22;3.00;;;1.50;;
75774;SDS011;64505;51.458;7.556;2023-03-24T01:56:28;3.45;;;2.08;;
75774;SDS011;64505;51.458;7.556;2023-03-24T01:58:34;3.72;;;1.60;;
75774;SDS011;64505;51.458;7.556;2023-03-24T02:00:37;5.68;;;1.60;;
75774;SDS011;64505;51.458;7.556;2023-03-24T02:02:42;4.82;;;1.85;;
75774;SDS011;64505;51.458;7.556;2023-03-24T02:04:58;4.03;;;1.70;;
75774;SDS011;64505;51.458;7.556;2023-03-24T02:07:07;5.38;;;1.70;;
75774;SDS011;64505;51.458;7.556;2023-03-24T02:09:13;3.42;;;1.98;;
75774;SDS011;64505;51.458;7.556;2023-03-24T02:11:15;3.53;;;1.60;;
75774;SDS011;64505;51.458;7.556;2023-03-24T02:13:17;3.33;;;1.60;;
75774;SDS011;64505;51.458;7.556;2023-03-24T02:15:18;3.75;;;1.83;;
75774;SDS011;64505;51.458;7.556;2023-03-24T02:22:09;5.43;;;1.67;;
75774;SDS011;64505;51.458;7.556;2023-03-24T02:24:24;6.80;;;1.63;;
75774;SDS011;64505;51.458;7.556;2023-03-24T02:27:01;6.45;;;1.70;;
75774;SDS011;64505;51.458;7.556;2023-03-24T02:32:08;3.20;;;1.90;;
75774;SDS011;64505;51.458;7.556;2023-03-24T02:39:30;5.75;;;1.92;;
75774;SDS011;64505;51.458;7.556;2023-03-24T02:43:59;3.55;;;1.60;;
75774;SDS011;64505;51.458;7.556;2023-03-24T02:48:43;4.15;;;1.77;;
75774;SDS011;64505;51.458;7.556;2023-03-24T02:54:01;5.93;;;1.90;;
75774;SDS011;64505;51.458;7.556;2023-03-24T02:58:36;4.15;;;1.85;;
75774;SDS011;64505;51.458;7.556;2023-03-24T03:00:45;3.35;;;1.77;;
75774;SDS011;64505;51.458;7.556;2023-03-24T03:03:17;5.85;;;2.13;;
75774;SDS011;64505;51.458;7.556;2023-03-24T03:05:22;4.47;;;1.80;;
75774;SDS011;64505;51.458;7.556;2023-03-24T03:07:30;4.97;;;2.08;;
75774;SDS011;64505;51.458;7.556;2023-03-24T03:09:34;4.00;;;2.38;;
75774;SDS011;64505;51.458;7.556;2023-03-24T03:11:40;3.80;;;1.90;;
75774;SDS011;64505;51.458;7.556;2023-03-24T03:13:53;4.55;;;2.03;;
75774;SDS011;64505;51.458;7.556;2023-03-24T03:16:02;4.00;;;2.38;;
75774;SDS011;64505;51.458;7.556;2023-03-24T03:18:18;3.70;;;2.00;;
75774;SDS011;64505;51.458;7.556;2023-03-24T03:20:25;4.43;;;1.95;;
75774;SDS011;64505;51.458;7.556;2023-03-24T03:22:41;5.55;;;2.50;;
75774;SDS011;64505;51.458;7.556;2023-03-24T03:24:50;4.78;;;2.28;;
75774;SDS011;64505;51.458;7.556;2023-03-24T03:26:56;4.75;;;2.10;;
75774;SDS011;64505;51.458;7.556;2023-03-24T03:29:07;4.82;;;2.03;;
75774;SDS011;64505;51.458;7.556;2023-03-24T03:31:18;3.58;;;1.85;;
75774;SDS011;64505;51.458;7.556;2023-03-24T03:33:32;4.55;;;2.20;;
75774;SDS011;64505;51.458;7.556;2023-03-24T03:35:40;4.47;;;2.13;;
75774;SDS011;64505;51.458;7.556;2023-03-24T03:37:57;6.68;;;2.42;;
75774;SDS011;64505;51.458;7.556;2023-03-24T03:40:07;6.82;;;2.70;;
75774;SDS011;64505;51.458;7.556;2023-03-24T03:42:13;4.15;;;2.28;;
75774;SDS011;64505;51.458;7.556;2023-03-24T03:44:14;4.82;;;2.35;;
75774;SDS011;64505;51.458;7.556;2023-03-24T03:46:16;4.45;;;2.15;;
75774;SDS011;64505;51.458;7.556;2023-03-24T03:48:18;5.05;;;2.25;;
75774;SDS011;64505;51.458;7.556;2023-03-24T03:50:20;4.50;;;2.22;;
75774;SDS011;64505;51.458;7.556;2023-03-24T03:52:22;5.05;;;2.28;;
75774;SDS011;64505;51.458;7.556;2023-03-24T03:54:24;4.28;;;2.17;;
75774;SDS011;64505;51.458;7.556;2023-03-24T03:56:30;4.63;;;2.42;;
75774;SDS011;64505;51.458;7.556;2023-03-24T03:58:33;4.65;;;2.33;;
75774;SDS011;64505;51.458;7.556;2023-03-24T04:00:35;4.70;;;2.00;;
75774;SDS011;64505;51.458;7.556;2023-03-24T04:07:14;4.60;;;2.17;;
75774;SDS011;64505;51.458;7.556;2023-03-24T04:16:04;4.20;;;2.08;;
75774;SDS011;64505;51.458;7.556;2023-03-24T04:18:24;3.38;;;1.90;;
75774;SDS011;64505;51.458;7.556;2023-03-24T04:20:47;4.70;;;2.35;;
75774;SDS011;64505;51.458;7.556;2023-03-24T04:27:37;4.22;;;2.33;;
75774;SDS011;64505;51.458;7.556;2023-03-24T04:29:54;4.57;;;2.72;;
75774;SDS011;64505;51.458;7.556;2023-03-24T04:34:25;4.93;;;2.85;;
75774;SDS011;64505;51.458;7.556;2023-03-24T04:36:44;4.93;;;2.50;;
75774;SDS011;64505;51.458;7.556;2023-03-24T04:38:54;5.35;;;2.40;;
75774;SDS011;64505;51.458;7.556;2023-03-24T04:40:57;6.00;;;2.63;;
75774;SDS011;64505;51.458;7.556;2023-03-24T04:43:00;6.45;;;2.58;;
75774;SDS011;64505;51.458;7.556;2023-03-24T04:45:04;6.30;;;2.55;;
75774;SDS011;64505;51.458;7.556;2023-03-24T04:47:08;4.43;;;2.33;;
75774;SDS011;64505;51.458;7.556;2023-03-24T04:49:12;5.18;;;2.45;;
75774;SDS011;64505;51.458;7.556;2023-03-24T04:51:14;5.38;;;2.75;;
75774;SDS011;64505;51.458;7.556;2023-03-24T04:53:17;5.82;;;2.78;;
75774;SDS011;64505;51.458;7.556;2023-03-24T04:59:33;4.60;;;2.80;;
75774;SDS011;64505;51.458;7.556;2023-03-24T05:01:35;5.45;;;2.80;;
75774;SDS011;64505;51.458;7.556;2023-03-24T05:03:37;4.70;;;2.97;;
75774;SDS011;64505;51.458;7.556;2023-03-24T05:05:39;6.57;;;2.90;;
75774;SDS011;64505;51.458;7.556;2023-03-24T05:07:42;5.68;;;2.72;;
75774;SDS011;64505;51.458;7.556;2023-03-24T05:09:44;4.45;;;2.78;;
75774;SDS011;64505;51.458;7.556;2023-03-24T05:11:45;3.70;;;2.17;;
75774;SDS011;64505;51.458;7.556;2023-03-24T05:13:47;3.92;;;2.10;;
75774;SDS011;64505;51.458;7.556;2023-03-24T05:15:51;4.45;;;2.00;;
75774;SDS011;64505;51.458;7.556;2023-03-24T05:17:53;3.55;;;1.75;;
75774;SDS011;64505;51.458;7.556;2023-03-24T05:19:54;4.70;;;1.88;;
75774;SDS011;64505;51.458;7.556;2023-03-24T05:21:56;3.08;;;1.80;;
75774;SDS011;64505;51.458;7.556;2023-03-24T05:23:57;3.38;;;1.63;;
75774;SDS011;64505;51.458;7.556;2023-03-24T05:25:59;3.20;;;1.55;;
75774;SDS011;64505;51.458;7.556;2023-03-24T05:28:01;3.70;;;1.60;;
75774;SDS011;64505;51.458;7.556;2023-03-24T05:30:03;3.75;;;1.40;;
75774;SDS011;64505;51.458;7.556;2023-03-24T05:32:06;3.25;;;1.60;;
75774;SDS011;64505;51.458;7.556;2023-03-24T05:34:07;2.60;;;1.25;;
75774;SDS011;64505;51.458;7.556;2023-03-24T05:36:09;2.60;;;1.27;;
75774;SDS011;64505;51.458;7.556;2023-03-24T05:38:11;4.18;;;1.60;;
75774;SDS011;64505;51.458;7.556;2023-03-24T05:40:13;4.65;;;1.60;;
75774;SDS011;64505;51.458;7.556;2023-03-24T05:42:15;4.72;;;1.52;;
75774;SDS011;64505;51.458;7.556;2023-03-24T05:44:17;3.67;;;1.52;;
75774;SDS011;64505;51.458;7.556;2023-03-24T05:46:18;6.82;;;1.35;;
75774;SDS011;64505;51.458;7.556;2023-03-24T05:48:20;2.65;;;1.30;;
75774;SDS011;64505;51.458;7.556;2023-03-24T05:50:22;2.88;;;0.95;;
75774;SDS011;64505;51.458;7.556;2023-03-24T05:52:24;3.70;;;1.50;;
75774;SDS011;64505;51.458;7.556;2023-03-24T05:54:29;3.40;;;1.55;;
75774;SDS011;64505;51.458;7.556;2023-03-24T05:56:31;3.28;;;1.42;;
75774;SDS011;64505;51.458;7.556;2023-03-24T05:58:32;4.20;;;1.67;;
75774;SDS011;64505;51.458;7.556;2023-03-24T06:00:35;4.55;;;1.52;;
75774;SDS011;64505;51.458;7.556;2023-03-24T06:02:36;3.55;;;1.40;;
75774;SDS011;64505;51.458;7.556;2023-03-24T06:04:40;4.38;;;1.50;;
75774;SDS011;64505;51.458;7.556;2023-03-24T06:06:46;3.63;;;1.88;;
75774;SDS011;64505;51.458;7.556;2023-03-24T06:08:48;3.00;;;1.88;;
75774;SDS011;64505;51.458;7.556;2023-03-24T06:10:50;3.72;;;1.92;;
75774;SDS011;64505;51.458;7.556;2023-03-24T06:12:53;4.78;;;1.90;;
75774;SDS011;64505;51.458;7.556;2023-03-24T06:14:56;3.72;;;2.10;;
75774;SDS011;64505;51.458;7.556;2023-03-24T06:16:57;5.75;;;2.08;;
75774;SDS011;64505;51.458;7.556;2023-03-24T06:18:59;6.50;;;1.98;;
75774;SDS011;64505;51.458;7.556;2023-03-24T06:21:01;4.35;;;1.55;;
75774;SDS011;64505;51.458;7.556;2023-03-24T06:23:02;4.13;;;1.67;;
75774;SDS011;64505;51.458;7.556;2023-03-24T06:25:04;4.75;;;1.73;;
75774;SDS011;64505;51.458;7.556;2023-03-24T06:27:05;3.00;;;1.48;;
75774;SDS011;64505;51.458;7.556;2023-03-24T06:29:09;5.38;;;1.58;;
75774;SDS011;64505;51.458;7.556;2023-03-24T06:31:11;3.92;;;1.45;;
75774;SDS011;64505;51.458;7.556;2023-03-24T06:33:15;3.17;;;1.42;;
75774;SDS011;64505;51.458;7.556;2023-03-24T06:35:16;2.95;;;1.60;;
75774;SDS011;64505;51.458;7.556;2023-03-24T06:37:18;6.28;;;2.35;;
75774;SDS011;64505;51.458;7.556;2023-03-24T06:39:23;4.10;;;2.45;;
75774;SDS011;64505;51.458;7.556;2023-03-24T06:41:25;7.88;;;2.08;;
75774;SDS011;64505;51.458;7.556;2023-03-24T06:43:26;4.85;;;2.10;;
75774;SDS011;64505;51.458;7.556;2023-03-24T06:45:28;4.20;;;1.80;;
75774;SDS011;64505;51.458;7.556;2023-03-24T06:47:31;6.10;;;2.08;;
75774;SDS011;64505;51.458;7.556;2023-03-24T06:49:32;4.47;;;1.70;;
75774;SDS011;64505;51.458;7.556;2023-03-24T06:51:34;3.72;;;2.10;;
75774;SDS011;64505;51.458;7.556;2023-03-24T06:53:36;4.32;;;1.85;;
75774;SDS011;64505;51.458;7.556;2023-03-24T06:55:38;3.92;;;1.80;;
75774;SDS011;64505;51.458;7.556;2023-03-24T06:57:40;6.40;;;2.05;;
75774;SDS011;64505;51.458;7.556;2023-03-24T06:59:42;5.60;;;2.13;;
75774;SDS011;64505;51.458;7.556;2023-03-24T07:01:43;4.15;;;2.40;;
75774;SDS011;64505;51.458;7.556;2023-03-24T07:03:45;5.35;;;1.95;;
75774;SDS011;64505;51.458;7.556;2023-03-24T07:05:46;5.07;;;2.40;;
75774;SDS011;64505;51.458;7.556;2023-03-24T07:07:48;6.10;;;2.95;;
75774;SDS011;64505;51.458;7.556;2023-03-24T07:09:52;6.45;;;2.97;;
75774;SDS011;64505;51.458;7.556;2023-03-24T07:11:55;6.90;;;3.03;;
75774;SDS011;64505;51.458;7.556;2023-03-24T07:13:56;6.13;;;2.72;;
75774;SDS011;64505;51.458;7.556;2023-03-24T07:15:58;6.88;;;3.55;;
75774;SDS011;64505;51.458;7.556;2023-03-24T07:17:59;6.50;;;2.92;;
75774;SDS011;64505;51.458;7.556;2023-03-24T07:20:01;5.50;;;2.88;;
75774;SDS011;64505;51.458;7.556;2023-03-24T07:22:08;6.32;;;2.47;;
75774;SDS011;64505;51.458;7.556;2023-03-24T07:24:09;5.40;;;2.30;;
75774;SDS011;64505;51.458;7.556;2023-03-24T07:26:11;5.78;;;2.00;;
75774;SDS011;64505;51.458;7.556;2023-03-24T07:28:12;3.28;;;1.40;;
75774;SDS011;64505;51.458;7.556;2023-03-24T07:30:14;5.22;;;1.83;;
75774;SDS011;64505;51.458;7.556;2023-03-24T07:32:15;2.95;;;1.23;;
75774;SDS011;64505;51.458;7.556;2023-03-24T07:34:17;5.82;;;2.00;;
75774;SDS011;64505;51.458;7.556;2023-03-24T07:36:19;4.70;;;1.20;;
75774;SDS011;64505;51.458;7.556;2023-03-24T07:38:21;6.90;;;1.40;;
75774;SDS011;64505;51.458;7.556;2023-03-24T07:40:22;7.03;;;1.20;;
75774;SDS011;64505;51.458;7.556;2023-03-24T07:42:23;4.38;;;1.10;;
75774;SDS011;64505;51.458;7.556;2023-03-24T07:44:26;7.32;;;1.60;;
75774;SDS011;64505;51.458;7.556;2023-03-24T07:46:27;6.95;;;1.35;;
75774;SDS011;64505;51.458;7.556;2023-03-24T07:48:29;7.53;;;1.10;;
75774;SDS011;64505;51.458;7.556;2023-03-24T07:50:31;5.45;;;1.20;;
75774;SDS011;64505;51.458;7.556;2023-03-24T07:52:33;3.83;;;0.90;;
75774;SDS011;64505;51.458;7.556;2023-03-24T07:54:34;8.43;;;1.40;;
75774;SDS011;64505;51.458;7.556;2023-03-24T07:56:35;5.78;;;1.10;;
75774;SDS011;64505;51.458;7.556;2023-03-24T07:58:37;8.40;;;1.52;;
75774;SDS011;64505;51.458;7.556;2023-03-24T08:00:38;7.38;;;1.27;;
75774;SDS011;64505;51.458;7.556;2023-03-24T08:02:41;5.38;;;0.90;;
75774;SDS011;64505;51.458;7.556;2023-03-24T08:04:43;7.20;;;1.40;;
75774;SDS011;64505;51.458;7.556;2023-03-24T08:06:45;9.85;;;1.40;;
75774;SDS011;64505;51.458;7.556;2023-03-24T08:08:46;6.88;;;1.10;;
75774;SDS011;64505;51.458;7.556;2023-03-24T08:10:48;6.93;;;1.50;;
75774;SDS011;64505;51.458;7.556;2023-03-24T08:12:51;5.88;;;1.27;;
75774;SDS011;64505;51.458;7.556;2023-03-24T08:14:52;8.02;;;1.63;;
75774;SDS011;64505;51.458;7.556;2023-03-24T08:16:54;7.55;;;1.50;;
75774;SDS011;64505;51.458;7.556;2023-03-24T08:18:56;5.85;;;1.40;;
75774;SDS011;64505;51.458;7.556;2023-03-24T08:20:58;9.70;;;1.20;;
75774;SDS011;64505;51.458;7.556;2023-03-24T08:23:01;8.02;;;1.27;;
75774;SDS011;64505;51.458;7.556;2023-03-24T08:25:05;6.05;;;1.40;;
75774;SDS011;64505;51.458;7.556;2023-03-24T08:27:08;8.48;;;1.55;;
75774;SDS011;64505;51.458;7.556;2023-03-24T08:29:10;7.88;;;1.13;;
75774;SDS011;64505;51.458;7.556;2023-03-24T08:31:12;6.68;;;1.00;;
75774;SDS011;64505;51.458;7.556;2023-03-24T08:33:14;6.88;;;1.60;;
75774;SDS011;64505;51.458;7.556;2023-03-24T08:35:17;7.70;;;1.27;;
75774;SDS011;64505;51.458;7.556;2023-03-24T08:37:22;6.05;;;1.48;;
75774;SDS011;64505;51.458;7.556;2023-03-24T08:39:23;10.05;;;1.10;;
75774;SDS011;64505;51.458;7.556;2023-03-24T08:41:25;5.55;;;1.35;;
75774;SDS011;64505;51.458;7.556;2023-03-24T08:43:31;7.93;;;1.17;;
75774;SDS011;64505;51.458;7.556;2023-03-24T08:45:34;4.90;;;1.00;;
75774;SDS011;64505;51.458;7.556;2023-03-24T08:47:36;5.30;;;1.42;;
75774;SDS011;64505;51.458;7.556;2023-03-24T08:49:38;9.13;;;1.95;;
75774;SDS011;64505;51.458;7.556;2023-03-24T08:51:39;5.07;;;1.45;;
75774;SDS011;64505;51.458;7.556;2023-03-24T08:53:41;7.20;;;1.73;;
75774;SDS011;64505;51.458;7.556;2023-03-24T08:55:43;6.85;;;1.30;;
75774;SDS011;64505;51.458;7.556;2023-03-24T08:57:46;6.70;;;1.42;;
75774;SDS011;64505;51.458;7.556;2023-03-24T08:59:48;7.82;;;1.20;;
75774;SDS011;64505;51.458;7.556;2023-03-24T09:01:51;6.70;;;1.10;;
75774;SDS011;64505;51.458;7.556;2023-03-24T09:03:53;4.78;;;1.17;;
75774;SDS011;64505;51.458;7.556;2023-03-24T09:05:55;6.32;;;1.10;;
75774;SDS011;64505;51.458;7.556;2023-03-24T09:07:57;15.07;;;1.77;;
75774;SDS011;64505;51.458;7.556;2023-03-24T09:10:00;7.15;;;1.13;;
75774;SDS011;64505;51.458;7.556;2023-03-24T09:12:05;8.02;;;1.45;;
75774;SDS011;64505;51.458;7.556;2023-03-24T09:14:07;6.30;;;1.38;;
75774;SDS011;64505;51.458;7.556;2023-03-24T09:16:08;9.55;;;1.98;;
75774;SDS011;64505;51.458;7.556;2023-03-24T09:18:10;8.18;;;1.45;;
75774;SDS011;64505;51.458;7.556;2023-03-24T09:20:12;7.35;;;1.95;;
75774;SDS011;64505;51.458;7.556;2023-03-24T09:22:15;9.05;;;1.60;;
75774;SDS011;64505;51.458;7.556;2023-03-24T09:24:17;8.93;;;1.70;;
75774;SDS011;64505;51.458;7.556;2023-03-24T09:26:18;8.43;;;1.88;;
75774;SDS011;64505;51.458;7.556;2023-03-24T09:28:20;7.93;;;1.70;;
75774;SDS011;64505;51.458;7.556;2023-03-24T09:30:22;6.00;;;1.67;;
75774;SDS011;64505;51.458;7.556;2023-03-24T09:32:23;8.07;;;1.85;;
75774;SDS011;64505;51.458;7.556;2023-03-24T09:34:25;7.85;;;1.75;;
75774;SDS011;64505;51.458;7.556;2023-03-24T09:36:26;12.02;;;2.05;;
75774;SDS011;64505;51.458;7.556;2023-03-24T09:38:31;6.70;;;1.67;;
75774;SDS011;64505;51.458;7.556;2023-03-24T09:40:35;7.35;;;2.08;;
75774;SDS011;64505;51.458;7.556;2023-03-24T09:42:39;9.07;;;1.55;;
75774;SDS011;64505;51.458;7.556;2023-03-24T09:44:45;6.97;;;1.92;;
75774;SDS011;64505;51.458;7.556;2023-03-24T09:47:01;9.32;;;2.00;;
75774;SDS011;64505;51.458;7.556;2023-03-24T09:49:08;7.28;;;2.33;;
75774;SDS011;64505;51.458;7.556;2023-03-24T09:55:49;7.03;;;2.47;;
75774;SDS011;64505;51.458;7.556;2023-03-24T09:57:51;14.52;;;2.00;;
75774;SDS011;64505;51.458;7.556;2023-03-24T09:59:55;7.95;;;2.45;;
75774;SDS011;64505;51.458;7.556;2023-03-24T10:01:57;5.50;;;1.80;;
75774;SDS011;64505;51.458;7.556;2023-03-24T10:03:58;8.48;;;1.65;;
75774;SDS011;64505;51.458;7.556;2023-03-24T10:06:04;8.20;;;1.90;;
75774;SDS011;64505;51.458;7.556;2023-03-24T10:10:35;5.75;;;1.60;;
75774;SDS011;64505;51.458;7.556;2023-03-24T10:12:57;8.35;;;1.63;;
75774;SDS011;64505;51.458;7.556;2023-03-24T10:17:32;9.82;;;1.63;;
75774;SDS011;64505;51.458;7.556;2023-03-24T10:19:52;7.20;;;1.73;;
75774;SDS011;64505;51.458;7.556;2023-03-24T10:24:31;7.32;;;1.25;;
75774;SDS011;64505;51.458;7.556;2023-03-24T10:26:48;6.43;;;1.25;;
75774;SDS011;64505;51.458;7.556;2023-03-24T10:29:24;8.23;;;1.20;;
75774;SDS011;64505;51.458;7.556;2023-03-24T10:31:32;7.20;;;1.48;;
75774;SDS011;64505;51.458;7.556;2023-03-24T10:33:38;10.23;;;1.42;;
75774;SDS011;64505;51.458;7.556;2023-03-24T10:36:03;5.90;;;1.30;;
75774;SDS011;64505;51.458;7.556;2023-03-24T10:38:13;8.80;;;1.30;;
75774;SDS011;64505;51.458;7.556;2023-03-24T10:40:21;7.13;;;1.27;;
75774;SDS011;64505;51.458;7.556;2023-03-24T10:42:33;4.35;;;1.25;;
75774;SDS011;64505;51.458;7.556;2023-03-24T10:44:35;6.70;;;1.17;;
75774;SDS011;64505;51.458;7.556;2023-03-24T10:46:44;5.00;;;1.17;;
75774;SDS011;64505;51.458;7.556;2023-03-24T10:48:49;10.50;;;1.40;;
75774;SDS011;64505;51.458;7.556;2023-03-24T10:50:53;6.97;;;1.25;;
75774;SDS011;64505;51.458;7.556;2023-03-24T10:52:58;9.43;;;1.50;;
75774;SDS011;64505;51.458;7.556;2023-03-24T10:55:04;9.00;;;1.13;;
75774;SDS011;64505;51.458;7.556;2023-03-24T10:57:13;9.85;;;1.73;;
75774;SDS011;64505;51.458;7.556;2023-03-24T10:59:25;16.00;;;2.42;;
75774;SDS011;64505;51.458;7.556;2023-03-24T11:01:38;8.25;;;1.45;;
75774;SDS011;64505;51.458;7.556;2023-03-24T11:03:41;9.48;;;1.60;;
75774;SDS011;64505;51.458;7.556;2023-03-24T11:05:43;5.78;;;1.38;;
75774;SDS011;64505;51.458;7.556;2023-03-24T11:07:46;7.32;;;1.23;;
75774;SDS011;64505;51.458;7.556;2023-03-24T11:09:59;6.18;;;1.63;;
75774;SDS011;64505;51.458;7.556;2023-03-24T11:12:19;8.38;;;1.33;;
75774;SDS011;64505;51.458;7.556;2023-03-24T11:14:31;9.60;;;1.83;;
75774;SDS011;64505;51.458;7.556;2023-03-24T11:16:37;5.72;;;1.52;;
75774;SDS011;64505;51.458;7.556;2023-03-24T11:20:58;8.02;;;1.48;;
75774;SDS011;64505;51.458;7.556;2023-03-24T11:23:06;8.43;;;1.73;;
75774;SDS011;64505;51.458;7.556;2023-03-24T11:25:15;7.22;;;1.20;;
75774;SDS011;64505;51.458;7.556;2023-03-24T11:27:17;7.65;;;1.70;;
75774;SDS011;64505;51.458;7.556;2023-03-24T11:29:20;8.85;;;1.85;;
75774;SDS011;64505;51.458;7.556;2023-03-24T11:33:31;5.75;;;1.42;;
75774;SDS011;64505;51.458;7.556;2023-03-24T11:35:38;5.25;;;1.30;;
75774;SDS011;64505;51.458;7.556;2023-03-24T11:37:43;5.03;;;1.63;;
75774;SDS011;64505;51.458;7.556;2023-03-24T11:43:10;6.78;;;1.40;;
75774;SDS011;64505;51.458;7.556;2023-03-24T11:45:27;5.90;;;1.50;;
75774;SDS011;64505;51.458;7.556;2023-03-24T11:47:36;9.13;;;1.55;;
75774;SDS011;64505;51.458;7.556;2023-03-24T11:49:41;6.90;;;1.30;;
75774;SDS011;64505;51.458;7.556;2023-03-24T11:51:46;7.85;;;1.42;;
75774;SDS011;64505;51.458;7.556;2023-03-24T11:53:53;10.25;;;1.45;;
75774;SDS011;64505;51.458;7.556;2023-03-24T11:58:40;5.18;;;1.10;;
75774;SDS011;64505;51.458;7.556;2023-03-24T12:00:50;5.13;;;0.93;;
75774;SDS011;64505;51.458;7.556;2023-03-24T12:05:20;6.68;;;1.45;;
75774;SDS011;64505;51.458;7.556;2023-03-24T12:07:34;7.05;;;1.10;;
75774;SDS011;64505;51.458;7.556;2023-03-24T12:09:52;12.57;;;1.67;;
75774;SDS011;64505;51.458;7.556;2023-03-24T12:12:27;5.10;;;1.58;;
75774;SDS011;64505;51.458;7.556;2023-03-24T12:22:00;8.18;;;1.10;;
75774;SDS011;64505;51.458;7.556;2023-03-24T12:26:33;3.85;;;1.05;;
75774;SDS011;64505;51.458;7.556;2023-03-24T12:30:54;4.85;;;0.90;;
75774;SDS011;64505;51.458;7.556;2023-03-24T12:37:46;6.88;;;1.25;;
75774;SDS011;64505;51.458;7.556;2023-03-24T12:42:09;6.07;;;1.20;;
75774;SDS011;64505;51.458;7.556;2023-03-24T12:48:49;5.43;;;1.73;;
75774;SDS011;64505;51.458;7.556;2023-03-24T12:51:21;4.43;;;1.30;;
75774;SDS011;64505;51.458;7.556;2023-03-24T12:55:45;3.80;;;0.90;;
75774;SDS011;64505;51.458;7.556;2023-03-24T13:00:21;5.97;;;1.30;;
75774;SDS011;64505;51.458;7.556;2023-03-24T13:02:47;5.25;;;1.80;;
75774;SDS011;64505;51.458;7.556;2023-03-24T13:04:51;5.43;;;1.17;;
75774;SDS011;64505;51.458;7.556;2023-03-24T13:06:58;7.57;;;2.00;;
75774;SDS011;64505;51.458;7.556;2023-03-24T13:09:03;5.47;;;1.10;;
75774;SDS011;64505;51.458;7.556;2023-03-24T13:11:11;4.28;;;1.50;;
75774;SDS011;64505;51.458;7.556;2023-03-24T13:13:39;5.82;;;1.45;;
75774;SDS011;64505;51.458;7.556;2023-03-24T13:15:45;9.80;;;1.42;;
75774;SDS011;64505;51.458;7.556;2023-03-24T13:20:12;9.75;;;1.23;;
75774;SDS011;64505;51.458;7.556;2023-03-24T13:22:17;6.82;;;1.15;;
75774;SDS011;64505;51.458;7.556;2023-03-24T13:24:21;3.83;;;0.90;;
75774;SDS011;64505;51.458;7.556;2023-03-24T13:29:20;6.63;;;0.98;;
75774;SDS011;64505;51.458;7.556;2023-03-24T13:31:03;10.88;;;1.60;;
75774;SDS011;64505;51.458;7.556;2023-03-24T13:33:15;3.92;;;0.80;;
75774;SDS011;64505;51.458;7.556;2023-03-24T13:40:07;4.38;;;1.00;;
75774;SDS011;64505;51.458;7.556;2023-03-24T13:44:59;6.07;;;1.17;;
75774;SDS011;64505;51.458;7.556;2023-03-24T13:47:04;4.32;;;0.95;;
75774;SDS011;64505;51.458;7.556;2023-03-24T13:49:14;7.40;;;1.10;;
75774;SDS011;64505;51.458;7.556;2023-03-24T13:51:17;7.95;;;1.20;;
75774;SDS011;64505;51.458;7.556;2023-03-24T13:53:29;5.50;;;1.10;;
75774;SDS011;64505;51.458;7.556;2023-03-24T13:55:50;5.07;;;1.08;;
75774;SDS011;64505;51.458;7.556;2023-03-24T13:57:56;6.93;;;1.33;;
75774;SDS011;64505;51.458;7.556;2023-03-24T14:00:03;7.97;;;1.17;;
75774;SDS011;64505;51.458;7.556;2023-03-24T14:02:20;7.00;;;1.20;;
75774;SDS011;64505;51.458;7.556;2023-03-24T14:08:59;6.82;;;1.50;;
75774;SDS011;64505;51.458;7.556;2023-03-24T14:11:48;4.45;;;0.80;;
75774;SDS011;64505;51.458;7.556;2023-03-24T14:13:45;4.45;;;0.70;;
75774;SDS011;64505;51.458;7.556;2023-03-24T14:15:51;6.50;;;0.98;;
75774;SDS011;64505;51.458;7.556;2023-03-24T14:20:24;7.28;;;0.88;;
75774;SDS011;64505;51.458;7.556;2023-03-24T14:22:32;6.72;;;1.02;;
75774;SDS011;64505;51.458;7.556;2023-03-24T14:24:36;6.10;;;1.00;;
75774;SDS011;64505;51.458;7.556;2023-03-24T14:26:39;5.93;;;1.55;;
75774;SDS011;64505;51.458;7.556;2023-03-24T14:28:41;4.75;;;0.68;;
75774;SDS011;64505;51.458;7.556;2023-03-24T14:33:23;4.82;;;0.90;;
75774;SDS011;64505;51.458;7.556;2023-03-24T14:37:33;4.03;;;1.05;;
75774;SDS011;64505;51.458;7.556;2023-03-24T14:39:47;7.80;;;1.27;;
75774;SDS011;64505;51.458;7.556;2023-03-24T14:41:49;6.63;;;1.02;;